Time;durP1;ratioP1;P1;durP2;ratioP2;P2;SDS_P1;SDS_P2;PMS_P1;PMS_P2;Temp;Humidity;BMP_temperature;BMP_pressure;BME280_temperature;BME280_humidity;BME280_pressure;Samples;Min_cycle;Max_cycle;Signal;HPM_P1;HPM_P2
2023/06/21 20:31:46;;;;;;;4.63;2.63;;;23.60;74.70;;;;;;5041495;27;1945605;-65
2023/06/21 20:34:14;;;;;;;4.90;2.80;;;23.10;76.60;;;;;;5089153;28;20520;-64
2023/06/21 20:36:42;;;;;;;4.63;2.65;;;23.00;77.80;;;;;;5087393;28;20545;-64
2023/06/21 20:39:13;;;;;;;4.18;2.72;;;23.00;78.60;;;;;;5069985;28;20028;-63
2023/06/21 20:41:46;;;;;;;3.80;2.60;;;22.90;78.90;;;;;;5088890;28;20036;-64
2023/06/21 20:44:12;;;;;;;7.57;2.90;;;23.00;78.90;;;;;;5088417;28;20365;-62
2023/06/21 20:46:42;;;;;;;7.60;3.17;;;22.90;79.50;;;;;;5089497;28;20161;-61
2023/06/21 20:49:07;;;;;;;5.22;3.08;;;23.00;80.00;;;;;;5079783;28;20023;-64
2023/06/21 20:51:34;;;;;;;4.85;3.25;;;23.00;80.50;;;;;;5068665;28;20025;-65
2023/06/21 20:53:59;;;;;;;5.65;3.80;;;22.90;81.00;;;;;;5069157;28;20044;-65
2023/06/21 20:56:26;;;;;;;4.20;2.83;;;22.90;81.70;;;;;;5069349;28;20466;-66
2023/06/21 20:58:56;;;;;;;4.68;3.35;;;22.90;82.10;;;;;;5068508;28;20435;-68
2023/06/21 21:01:22;;;;;;;5.72;3.90;;;22.90;82.60;;;;;;5079373;28;20022;-67
2023/06/21 21:03:48;;;;;;;6.47;4.00;;;22.90;83.10;;;;;;5089731;28;20488;-65
2023/06/21 21:06:14;;;;;;;6.60;3.63;;;22.80;83.50;;;;;;5071029;28;20013;-63
2023/06/21 21:08:40;;;;;;;5.07;3.67;;;22.80;84.10;;;;;;5070959;28;20031;-64
2023/06/21 21:11:09;;;;;;;5.55;4.07;;;22.80;84.90;;;;;;5089443;28;20051;-68
2023/06/21 21:13:35;;;;;;;5.75;4.13;;;22.80;85.10;;;;;;5088789;28;20024;-63
2023/06/21 21:16:01;;;;;;;5.43;3.55;;;22.70;85.60;;;;;;5089504;28;20031;-65
2023/06/21 21:18:26;;;;;;;6.53;4.35;;;22.70;86.40;;;;;;5089135;28;20099;-67
2023/06/21 21:20:52;;;;;;;5.55;4.05;;;22.60;86.80;;;;;;5088652;28;20031;-67
2023/06/21 21:23:19;;;;;;;6.05;3.97;;;22.60;87.50;;;;;;5089089;28;20396;-68
2023/06/21 21:25:46;;;;;;;6.88;4.55;;;22.50;88.00;;;;;;5088251;28;20020;-65
2023/06/21 21:28:12;;;;;;;5.43;4.00;;;22.50;88.80;;;;;;5089088;28;20039;-67
2023/06/21 21:30:38;;;;;;;6.10;4.45;;;22.30;89.30;;;;;;5088629;28;20478;-68
2023/06/21 21:33:04;;;;;;;6.57;4.20;;;22.30;90.10;;;;;;5088062;28;20056;-65
2023/06/21 21:35:30;;;;;;;6.80;5.22;;;22.20;90.40;;;;;;5088664;28;20078;-67
2023/06/21 21:37:55;;;;;;;6.47;4.30;;;22.20;90.80;;;;;;5088659;28;20020;-68
2023/06/21 21:40:21;;;;;;;7.07;4.38;;;22.10;91.10;;;;;;5088205;28;20105;-64
2023/06/21 21:42:46;;;;;;;7.05;4.22;;;22.10;91.40;;;;;;5076843;28;20498;-66
2023/06/21 21:45:12;;;;;;;5.85;4.60;;;22.10;91.60;;;;;;5075350;28;20024;-67
2023/06/21 21:47:37;;;;;;;7.13;4.25;;;22.00;91.90;;;;;;5074506;28;20051;-68
2023/06/21 21:50:03;;;;;;;5.63;3.53;;;22.00;92.20;;;;;;5057092;28;20029;-63
2023/06/21 21:52:29;;;;;;;5.63;3.58;;;21.80;92.40;;;;;;5075034;28;20096;-67
2023/06/21 21:54:54;;;;;;;5.57;3.72;;;21.60;93.10;;;;;;5074490;28;20078;-67
2023/06/21 21:57:20;;;;;;;6.25;3.75;;;21.40;93.60;;;;;;5074918;28;20016;-62
2023/06/21 21:59:46;;;;;;;5.95;4.07;;;21.30;94.40;;;;;;5074759;28;20081;-63
2023/06/21 22:02:12;;;;;;;6.55;4.05;;;21.20;95.10;;;;;;5074257;28;20107;-64
2023/06/21 22:04:38;;;;;;;6.78;3.63;;;21.20;95.60;;;;;;5075116;28;20389;-62
2023/06/21 22:07:04;;;;;;;5.85;3.95;;;21.20;96.20;;;;;;5074519;28;20530;-64
2023/06/21 22:09:30;;;;;;;5.85;4.00;;;21.10;96.60;;;;;;5073815;28;20020;-65
2023/06/21 22:11:56;;;;;;;7.28;4.30;;;21.10;97.00;;;;;;5074662;28;20389;-63
2023/06/21 22:14:22;;;;;;;6.65;4.05;;;21.20;97.40;;;;;;5074352;28;20016;-65
2023/06/21 22:16:52;;;;;;;6.45;4.18;;;21.20;97.80;;;;;;5073982;28;20024;-65
2023/06/21 22:19:18;;;;;;;6.90;4.45;;;21.10;98.10;;;;;;5074692;28;20032;-63
2023/06/21 22:21:46;;;;;;;6.55;4.25;;;21.10;98.50;;;;;;5074516;28;20028;-63
2023/06/21 22:24:11;;;;;;;4.82;3.47;;;21.10;98.80;;;;;;5073667;28;20028;-66
2023/06/21 22:26:37;;;;;;;5.88;3.42;;;20.90;99.00;;;;;;5074318;28;20117;-64
2023/06/21 22:29:03;;;;;;;8.63;3.85;;;20.80;99.70;;;;;;5073650;28;20035;-64
2023/06/21 22:31:29;;;;;;;5.85;3.85;;;20.60;99.90;;;;;;5074097;28;20056;-65
2023/06/21 22:33:54;;;;;;;5.15;3.63;;;20.50;99.90;;;;;;5056352;28;20013;-62
2023/06/21 22:36:21;;;;;;;5.80;3.70;;;20.40;99.90;;;;;;5055568;28;20284;-65
2023/06/21 22:38:48;;;;;;;8.98;4.38;;;20.40;99.90;;;;;;5074108;28;21003;-67
2023/06/21 22:41:16;;;;;;;5.85;3.67;;;20.50;99.90;;;;;;5073978;28;20020;-67
2023/06/21 22:43:42;;;;;;;6.75;3.70;;;20.50;99.90;;;;;;5055338;28;20012;-62
2023/06/21 22:46:08;;;;;;;5.35;4.00;;;20.50;99.90;;;;;;5073983;28;20024;-65
2023/06/21 22:48:34;;;;;;;5.25;3.50;;;20.40;99.90;;;;;;5074024;28;20031;-65
2023/06/21 22:51:01;;;;;;;5.65;3.70;;;20.40;99.90;;;;;;5073489;28;20513;-66
2023/06/21 22:53:27;;;;;;;5.05;3.50;;;20.30;99.90;;;;;;5073022;28;20028;-63
2023/06/21 22:55:52;;;;;;;7.00;4.20;;;20.20;99.90;;;;;;5074266;28;20164;-66
2023/06/21 22:58:18;;;;;;;5.97;3.80;;;20.20;99.90;;;;;;5073151;28;20457;-66
2023/06/21 23:00:43;;;;;;;6.75;3.88;;;20.10;99.90;;;;;;5073734;28;20032;-66
2023/06/21 23:03:11;;;;;;;5.00;3.72;;;20.10;99.90;;;;;;5073728;28;20404;-66
2023/06/21 23:05:36;;;;;;;5.70;3.65;;;20.00;99.90;;;;;;5055176;28;20032;-63
2023/06/21 23:08:02;;;;;;;5.05;3.58;;;19.90;99.90;;;;;;5073777;28;20012;-66
2023/06/21 23:10:29;;;;;;;6.25;3.88;;;19.80;99.90;;;;;;5073573;28;20036;-64
2023/06/21 23:12:55;;;;;;;6.25;4.45;;;19.70;99.90;;;;;;5072899;28;20024;-67
2023/06/21 23:15:23;;;;;;;6.38;4.03;;;19.70;99.90;;;;;;5073468;28;20406;-65
2023/06/21 23:17:50;;;;;;;6.40;4.22;;;19.60;99.90;;;;;;5073735;28;20028;-66
2023/06/21 23:20:16;;;;;;;9.13;3.85;;;19.60;99.90;;;;;;5072997;28;20028;-65
2023/06/21 23:22:46;;;;;;;6.03;4.15;;;19.60;99.90;;;;;;5073431;28;20016;-66
2023/06/21 23:25:12;;;;;;;9.82;4.32;;;19.50;99.90;;;;;;5073295;28;20056;-66
2023/06/21 23:27:42;;;;;;;6.15;4.30;;;19.50;99.90;;;;;;5072606;28;20038;-65
2023/06/21 23:30:16;;;;;;;6.60;4.22;;;19.40;99.90;;;;;;5073299;28;20049;-66
2023/06/21 23:32:42;;;;;;;6.10;4.15;;;19.30;99.90;;;;;;5072692;28;20115;-66
2023/06/21 23:35:09;;;;;;;6.00;3.70;;;19.30;99.90;;;;;;5055338;28;20028;-65
2023/06/21 23:37:36;;;;;;;5.60;4.38;;;19.10;99.90;;;;;;5055186;28;20021;-67
2023/06/21 23:40:10;;;;;;;8.35;4.63;;;19.10;99.90;;;;;;5072316;28;20025;-68
2023/06/21 23:42:38;;;;;;;7.63;4.45;;;19.10;99.90;;;;;;5073185;28;20481;-65
2023/06/21 23:45:09;;;;;;;7.85;4.88;;;19.00;99.90;;;;;;5073160;28;20029;-66
2023/06/21 23:47:35;;;;;;;;;;;19.10;99.90;;;;;;5054873;28;20023;-66
2023/06/21 23:50:02;;;;;;;5.78;3.80;;;19.10;99.90;;;;;;5054963;28;19912;-67
2023/06/21 23:52:27;;;;;;;5.32;4.28;;;19.20;99.90;;;;;;5072961;28;20021;-66
2023/06/21 23:54:53;;;;;;;7.68;4.82;;;19.20;99.90;;;;;;5072673;28;20015;-66
2023/06/21 23:57:22;;;;;;;5.95;4.47;;;19.10;99.90;;;;;;5072760;28;20514;-62
2023/06/21 23:59:51;;;;;;;7.63;4.80;;;19.10;99.90;;;;;;5072654;28;20020;-66
